Time;durP1;ratioP1;P1;durP2;ratioP2;P2;SDS_P1;SDS_P2;PMS_P1;PMS_P2;Temp;Humidity;BMP_temperature;BMP_pressure;BME280_temperature;BME280_humidity;BME280_pressure;Samples;Min_cycle;Max_cycle;Signal;HPM_P1;HPM_P2
2021/01/22 00:00:40;;;;;;;5.93;2.23;;;8.80;99.90;;;9.27;100.00;95597.38;5000995;28;20477;-79
2021/01/22 00:03:08;;;;;;;4.90;3.20;;;8.80;99.90;;;9.25;100.00;95589.78;5007609;28;20478;-79
2021/01/22 00:05:37;;;;;;;2.23;1.60;;;8.80;99.90;;;9.30;100.00;95589.09;4999866;28;20464;-79
2021/01/22 00:08:05;;;;;;;3.67;1.53;;;8.90;99.90;;;9.28;100.00;95591.13;4998520;28;20479;-80
2021/01/22 00:10:33;;;;;;;10.43;2.40;;;8.80;99.90;;;9.31;100.00;95585.44;5001763;28;20460;-79
2021/01/22 00:13:02;;;;;;;5.30;1.97;;;8.80;99.90;;;9.34;100.00;95588.34;5001529;28;21084;-79
2021/01/22 00:15:30;;;;;;;3.00;1.53;;;8.80;99.90;;;9.37;100.00;95580.03;4999044;28;20526;-79
2021/01/22 00:17:58;;;;;;;2.10;1.50;;;8.90;99.90;;;9.37;100.00;95576.66;5001333;28;20475;-79
2021/01/22 00:20:26;;;;;;;6.20;2.00;;;8.90;99.90;;;9.40;100.00;95590.03;5000070;28;20471;-79
2021/01/22 00:22:53;;;;;;;4.97;1.50;;;8.90;99.90;;;9.37;100.00;95593.09;4999606;28;20977;-79
2021/01/22 00:25:21;;;;;;;4.63;2.73;;;8.90;99.90;;;9.36;100.00;95552.41;5002411;28;20542;-79
2021/01/22 00:27:49;;;;;;;2.03;1.43;;;8.90;99.90;;;9.39;100.00;95567.56;5000280;28;20952;-79
2021/01/22 00:30:17;;;;;;;2.90;1.70;;;8.90;99.90;;;9.37;100.00;95574.81;4997853;28;20500;-79
2021/01/22 00:32:45;;;;;;;3.23;1.67;;;8.90;99.90;;;9.38;100.00;95552.16;5000795;28;20497;-79
2021/01/22 00:35:13;;;;;;;4.80;1.80;;;8.90;99.90;;;9.32;100.00;95559.13;5001013;28;20980;-79
2021/01/22 00:37:40;;;;;;;3.37;1.43;;;8.80;99.90;;;9.35;100.00;95566.47;5001036;28;20464;-79
2021/01/22 00:40:09;;;;;;;3.57;1.47;;;8.90;99.90;;;9.32;100.00;95569.56;5000948;28;20471;-79
2021/01/22 00:42:37;;;;;;;4.87;1.93;;;8.90;99.90;;;9.34;100.00;95557.06;4999029;28;20463;-79
2021/01/22 00:45:08;;;;;;;6.00;1.90;;;8.90;99.90;;;9.34;100.00;95549.22;4998559;28;20479;-79
2021/01/22 00:47:38;;;;;;;3.13;1.50;;;8.90;99.90;;;9.29;100.00;95551.78;5000927;28;20521;-79
2021/01/22 00:50:07;;;;;;;3.83;1.37;;;8.90;99.90;;;9.28;100.00;95565.06;4998447;28;20470;-79
2021/01/22 00:52:36;;;;;;;1.23;1.00;;;8.80;99.90;;;9.29;100.00;95557.00;5001928;28;20474;-79
2021/01/22 00:55:04;;;;;;;3.20;1.43;;;8.80;99.90;;;9.27;100.00;95548.63;5000293;28;21007;-79
2021/01/22 00:57:31;;;;;;;2.20;1.30;;;8.80;99.90;;;9.29;100.00;95536.13;4999374;28;20471;-79
2021/01/22 00:59:59;;;;;;;2.90;1.57;;;8.80;99.90;;;9.31;100.00;95534.06;4999844;28;20469;-79
2021/01/22 01:02:29;;;;;;;2.30;1.40;;;8.90;99.90;;;9.30;100.00;95553.34;5000144;28;20979;-79
2021/01/22 01:04:57;;;;;;;3.40;1.37;;;8.80;99.90;;;9.29;100.00;95545.78;4998952;28;20963;-79
2021/01/22 01:07:24;;;;;;;1.90;1.40;;;8.80;99.90;;;9.26;100.00;95544.44;4999940;28;20521;-79
2021/01/22 01:09:52;;;;;;;2.00;1.40;;;8.70;99.90;;;9.26;100.00;95547.06;4998640;28;20479;-79
2021/01/22 01:12:19;;;;;;;2.20;1.30;;;8.70;99.90;;;9.29;100.00;95543.97;4997841;28;20490;-79
2021/01/22 01:14:46;;;;;;;7.53;1.50;;;8.80;99.90;;;9.25;100.00;95560.31;4994133;28;20898;-79
2021/01/22 01:17:14;;;;;;;3.47;1.47;;;8.80;99.90;;;9.26;100.00;95562.69;5001480;28;20467;-79
2021/01/22 01:19:42;;;;;;;2.03;1.23;;;8.80;99.90;;;9.21;100.00;95575.66;4998485;28;20495;-79
2021/01/22 01:22:10;;;;;;;3.93;1.40;;;8.80;99.90;;;9.14;100.00;95567.22;5001071;28;20475;-80
2021/01/22 01:24:38;;;;;;;2.20;1.13;;;8.60;99.90;;;9.12;100.00;95574.50;5000657;28;20499;-79
2021/01/22 01:27:06;;;;;;;2.10;1.17;;;8.60;99.90;;;9.12;100.00;95566.66;5000089;28;20876;-79
2021/01/22 01:29:34;;;;;;;1.60;1.20;;;8.70;99.90;;;9.07;100.00;95575.19;4995916;28;21016;-79
2021/01/22 01:32:02;;;;;;;2.30;1.10;;;8.60;99.90;;;9.07;100.00;95567.38;4999948;28;20494;-79
2021/01/22 01:34:30;;;;;;;3.77;1.27;;;8.60;99.90;;;9.08;100.00;95555.13;5000040;28;20495;-79
2021/01/22 01:36:58;;;;;;;5.10;2.07;;;8.60;99.90;;;9.01;100.00;95570.16;5001155;28;20447;-79
2021/01/22 01:39:26;;;;;;;1.00;0.90;;;8.50;99.90;;;9.02;100.00;95561.31;5000334;28;21083;-79
2021/01/22 01:41:53;;;;;;;1.87;1.10;;;8.50;99.90;;;9.02;100.00;95569.13;4999856;28;20479;-79
2021/01/22 01:44:21;;;;;;;3.30;1.63;;;8.50;99.90;;;8.99;100.00;95556.53;4998934;28;20482;-79
2021/01/22 01:46:48;;;;;;;1.67;1.03;;;8.50;99.90;;;8.97;100.00;95569.03;4998062;28;20471;-79
2021/01/22 01:49:16;;;;;;;4.17;1.20;;;8.50;99.90;;;8.90;100.00;95553.56;4998488;28;20471;-79
2021/01/22 01:51:45;;;;;;;2.63;1.40;;;8.40;99.90;;;8.92;100.00;95556.72;5000196;28;20466;-79
2021/01/22 01:54:14;;;;;;;1.30;1.10;;;8.50;99.90;;;8.93;100.00;95555.69;4997683;28;20503;-79
2021/01/22 01:56:42;;;;;;;2.00;1.30;;;8.50;99.90;;;8.91;100.00;95554.34;5000273;28;20471;-79
2021/01/22 01:59:10;;;;;;;1.53;1.20;;;8.40;99.90;;;8.93;100.00;95562.72;4999519;28;20504;-79
2021/01/22 02:01:40;;;;;;;6.07;1.40;;;8.50;99.90;;;8.94;100.00;95564.31;5000134;28;20464;-79
2021/01/22 02:04:08;;;;;;;3.03;1.17;;;8.50;99.90;;;8.96;100.00;95567.44;4998793;28;20828;-79
2021/01/22 02:06:35;;;;;;;7.80;1.30;;;8.50;99.90;;;8.91;100.00;95562.19;4997404;28;21034;-79
2021/01/22 02:09:04;;;;;;;5.80;1.33;;;8.40;99.90;;;8.91;100.00;95562.19;4999673;28;20468;-79
2021/01/22 02:11:34;;;;;;;14.33;1.30;;;8.40;99.90;;;8.91;100.00;95547.34;4999558;28;20471;-79
2021/01/22 02:14:03;;;;;;;1.53;1.20;;;8.50;99.90;;;8.88;100.00;95558.25;4998291;28;20503;-78
2021/01/22 02:16:33;;;;;;;4.40;1.40;;;8.40;99.90;;;8.91;100.00;95551.75;5000167;28;20453;-79
2021/01/22 02:19:05;;;;;;;3.20;1.00;;;8.40;99.90;;;8.90;100.00;95550.16;4999891;28;20466;-79
2021/01/22 02:21:34;;;;;;;3.53;1.10;;;8.40;99.90;;;8.94;100.00;95548.66;5000257;28;20983;-79
2021/01/22 02:24:09;;;;;;;7.07;1.00;;;8.50;99.90;;;8.92;100.00;95551.50;5004391;28;20467;-79
2021/01/22 02:27:02;;;;;;;3.90;1.53;;;8.40;99.90;;;8.93;100.00;95552.28;5000393;28;20471;-79
2021/01/22 02:29:31;;;;;;;5.10;1.17;;;8.50;99.90;;;8.93;100.00;95547.88;4998589;28;20925;-79
2021/01/22 02:32:06;;;;;;;1.27;1.00;;;8.50;99.90;;;8.94;100.00;95556.50;5004056;28;20505;-79
2021/01/22 02:34:39;;;;;;;1.37;1.10;;;8.50;99.90;;;8.92;100.00;95546.28;5003487;28;20494;-79
2021/01/22 02:37:12;;;;;;;3.17;1.20;;;8.50;99.90;;;8.91;100.00;95549.94;5003812;28;20521;-79
2021/01/22 02:39:44;;;;;;;5.10;1.20;;;8.50;99.90;;;8.89;100.00;95536.34;5003497;28;20475;-79
2021/01/22 02:42:15;;;;;;;2.07;1.17;;;8.40;99.90;;;8.87;100.00;95548.03;5003202;28;20439;-79
2021/01/22 02:44:44;;;;;;;2.10;1.13;;;8.40;99.90;;;8.91;100.00;95549.16;5002570;28;20478;-79
2021/01/22 02:47:15;;;;;;;1.90;1.30;;;8.50;99.90;;;8.87;100.00;95542.81;5003572;28;20540;-79
2021/01/22 02:49:42;;;;;;;1.40;1.13;;;8.40;99.90;;;8.84;100.00;95553.72;5003461;28;20498;-79
2021/01/22 02:52:10;;;;;;;2.60;1.20;;;8.30;99.90;;;8.86;100.00;95552.47;5000707;28;20951;-79
2021/01/22 02:54:38;;;;;;;2.27;1.33;;;8.40;99.90;;;8.85;100.00;95563.91;5003371;28;20503;-79
2021/01/22 02:57:21;;;;;;;2.60;1.43;;;8.40;99.90;;;8.80;100.00;95563.03;5003908;28;20961;-79
2021/01/22 03:00:00;;;;;;;2.37;1.00;;;8.40;99.90;;;8.81;100.00;95554.22;5002504;28;20586;-79
2021/01/22 03:02:39;;;;;;;4.20;1.13;;;8.30;99.90;;;8.84;100.00;95569.38;5001919;28;20465;-79
2021/01/22 03:05:10;;;;;;;2.20;1.47;;;8.40;99.90;;;8.81;100.00;95559.41;5002157;28;20466;-79
2021/01/22 03:07:47;;;;;;;5.23;1.50;;;8.30;99.90;;;8.77;100.00;95553.88;5004023;28;20458;-79
2021/01/22 03:10:19;;;;;;;1.97;1.10;;;8.20;99.90;;;8.81;100.00;95544.56;4999124;28;20516;-79
2021/01/22 03:12:52;;;;;;;3.50;1.50;;;8.30;99.90;;;8.79;100.00;95543.22;5002987;28;21085;-79
2021/01/22 03:15:21;;;;;;;2.10;1.47;;;8.30;99.90;;;8.81;100.00;95551.59;5002886;28;20462;-79
2021/01/22 03:17:49;;;;;;;5.80;2.10;;;8.30;99.90;;;8.85;100.00;95565.75;4999127;28;20490;-79
2021/01/22 03:20:21;;;;;;;8.43;1.67;;;8.40;99.90;;;8.85;100.00;95560.53;5001702;28;20478;-79
2021/01/22 03:22:49;;;;;;;11.10;2.00;;;8.40;99.90;;;8.84;100.00;95553.72;4999497;28;20808;-79
2021/01/22 03:25:16;;;;;;;9.63;1.30;;;8.40;99.90;;;8.85;100.00;95555.31;5000622;28;20463;-79
2021/01/22 03:27:43;;;;;;;6.13;1.47;;;8.40;99.90;;;8.85;100.00;95560.53;5001306;28;20459;-79
2021/01/22 03:30:14;;;;;;;2.70;1.20;;;8.40;99.90;;;8.85;100.00;95560.53;5004009;28;20497;-79
2021/01/22 03:32:42;;;;;;;12.73;2.37;;;8.40;99.90;;;8.84;100.00;95567.56;5001170;28;20470;-79
2021/01/22 03:35:12;;;;;;;7.23;1.77;;;8.40;99.90;;;8.86;100.00;95562.09;5001372;28;20865;-79
2021/01/22 03:37:40;;;;;;;3.87;1.40;;;8.40;99.90;;;8.85;100.00;95561.28;5002738;28;20467;-79
2021/01/22 03:40:09;;;;;;;4.43;2.00;;;8.40;99.90;;;8.86;100.00;95556.88;5003803;28;20493;-79
2021/01/22 03:42:36;;;;;;;3.70;1.20;;;8.40;99.90;;;8.87;100.00;95571.50;5002332;28;20475;-79
2021/01/22 03:45:06;;;;;;;7.10;1.60;;;8.40;99.90;;;8.85;100.00;95571.72;5001567;28;21070;-79
2021/01/22 03:47:34;;;;;;;16.47;1.70;;;8.40;99.90;;;8.83;100.00;95562.56;5002197;28;20474;-79
2021/01/22 03:50:03;;;;;;;4.30;1.43;;;8.30;99.90;;;8.82;100.00;95577.41;5001527;28;20979;-79
2021/01/22 03:52:31;;;;;;;6.10;1.47;;;8.30;99.90;;;8.83;100.00;95567.78;5000968;28;20463;-79
2021/01/22 03:54:59;;;;;;;10.80;1.80;;;8.40;99.90;;;8.81;100.00;95580.25;5001979;28;20846;-79
2021/01/22 03:57:26;;;;;;;2.90;1.30;;;8.30;99.90;;;8.83;100.00;95575.59;5002581;28;20532;-79
2021/01/22 03:59:54;;;;;;;1.87;1.60;;;8.40;99.90;;;8.83;100.00;95570.38;5001975;28;20478;-79
2021/01/22 04:02:21;;;;;;;4.50;1.67;;;8.40;99.90;;;8.84;100.00;95569.38;4999774;28;20466;-79
2021/01/22 04:04:50;;;;;;;3.27;1.40;;;8.40;99.90;;;8.84;100.00;95571.97;5001683;28;20963;-79
2021/01/22 04:07:18;;;;;;;5.00;1.80;;;8.40;99.90;;;8.85;100.00;95565.75;4999703;28;20828;-79
2021/01/22 04:09:45;;;;;;;4.23;1.37;;;8.40;99.90;;;8.86;100.00;95572.50;5000226;28;20507;-79
2021/01/22 04:12:13;;;;;;;6.67;1.37;;;8.40;99.90;;;8.81;100.00;95577.66;4999796;28;20513;-79
2021/01/22 04:14:40;;;;;;;3.10;1.40;;;8.40;99.90;;;8.80;100.00;95579.47;5000837;28;20506;-79
2021/01/22 04:17:08;;;;;;;4.67;1.67;;;8.40;99.90;;;8.81;100.00;95583.66;5000708;28;20848;-79
2021/01/22 04:19:35;;;;;;;4.10;1.33;;;8.30;99.90;;;8.79;100.00;95583.09;5001603;28;20483;-79
2021/01/22 04:22:04;;;;;;;11.80;1.50;;;8.40;99.90;;;8.80;100.00;95579.47;4999261;28;20458;-79
2021/01/22 04:24:31;;;;;;;3.33;1.40;;;8.40;99.90;;;8.82;100.00;95581.81;5000334;28;20470;-78
2021/01/22 04:26:59;;;;;;;4.13;1.40;;;8.30;99.90;;;8.82;100.00;95576.59;4999826;28;20467;-79
2021/01/22 04:29:26;;;;;;;4.53;1.33;;;8.30;99.90;;;8.81;100.00;95572.44;4999145;28;20495;-79
2021/01/22 04:31:54;;;;;;;4.53;1.10;;;8.30;99.90;;;8.83;100.00;95578.19;4999222;28;20462;-79
2021/01/22 04:34:22;;;;;;;4.20;1.60;;;8.40;99.90;;;8.84;100.00;95579.78;5001026;28;20999;-79
2021/01/22 04:36:49;;;;;;;6.57;1.30;;;8.40;99.90;;;8.81;100.00;95580.25;4999694;28;20975;-79
2021/01/22 04:39:19;;;;;;;6.03;1.63;;;8.40;99.90;;;8.78;100.00;95580.75;4997613;28;20489;-79
2021/01/22 04:41:47;;;;;;;5.20;1.50;;;8.30;99.90;;;8.75;100.00;95570.75;5000940;28;20481;-79
2021/01/22 04:44:15;;;;;;;10.50;1.60;;;8.30;99.90;;;8.74;100.00;95571.81;5000593;28;20554;-79
2021/01/22 04:46:45;;;;;;;13.53;6.30;;;8.30;99.90;;;8.72;100.00;95566.81;4999541;28;20474;-78
2021/01/22 04:49:14;;;;;;;2.57;1.60;;;8.20;99.90;;;8.76;100.00;95567.13;4998099;28;20467;-79
2021/01/22 04:51:46;;;;;;;2.50;1.20;;;8.30;99.90;;;8.78;100.00;95572.91;4999660;28;20908;-79
2021/01/22 04:54:23;;;;;;;4.50;1.37;;;8.30;99.90;;;8.80;100.00;95560.44;4999417;28;20898;-79
2021/01/22 04:56:52;;;;;;;1.80;1.20;;;8.40;99.90;;;8.76;100.00;95559.31;5001040;28;20490;-79
2021/01/22 04:59:25;;;;;;;5.50;1.57;;;8.20;99.90;;;8.78;100.00;95559.91;5002165;28;20814;-79
2021/01/22 05:01:55;;;;;;;5.30;2.13;;;8.30;99.90;;;8.78;100.00;95570.31;5001648;28;20493;-80
2021/01/22 05:04:24;;;;;;;8.13;1.60;;;8.30;99.90;;;8.77;100.00;95559.09;5001300;28;20583;-79
2021/01/22 05:06:52;;;;;;;2.50;1.13;;;8.30;99.90;;;8.75;100.00;95562.94;5001250;28;20466;-80
2021/01/22 05:09:19;;;;;;;2.20;1.40;;;8.30;99.90;;;8.75;100.00;95565.56;5002526;28;20455;-79
2021/01/22 05:11:54;;;;;;;222.03;95.57;;;8.30;99.90;;;8.74;100.00;95561.38;4999089;28;20478;-80
2021/01/22 05:14:22;;;;;;;7.03;1.57;;;8.20;99.90;;;8.76;100.00;95556.72;5000124;28;20507;-79
2021/01/22 05:17:07;;;;;;;6.53;1.30;;;8.30;99.90;;;8.76;100.00;95569.75;4998832;28;20471;-79
2021/01/22 05:19:37;;;;;;;5.93;1.80;;;8.20;99.90;;;8.77;100.00;95573.94;4999607;28;20551;-80
2021/01/22 05:22:07;;;;;;;19.63;8.67;;;8.20;99.90;;;8.76;100.00;95575.75;5000889;28;20471;-78
2021/01/22 05:24:35;;;;;;;3.53;1.57;;;8.20;99.90;;;8.74;100.00;95590.84;4999629;28;20980;-79
2021/01/22 05:27:06;;;;;;;6.07;1.50;;;8.20;99.90;;;8.76;100.00;95588.78;5000085;28;20979;-79
2021/01/22 05:29:39;;;;;;;4.83;2.10;;;8.30;99.90;;;8.73;100.00;95604.09;5000758;28;20480;-79
2021/01/22 05:32:26;;;;;;;6.20;1.40;;;8.30;99.90;;;8.63;100.00;95619.56;5001372;28;20936;-79
2021/01/22 05:34:54;;;;;;;2.33;1.53;;;8.10;99.90;;;8.38;100.00;95648.53;4997749;28;20619;-79
2021/01/22 05:37:25;;;;;;;0.80;0.70;;;7.90;99.90;;;8.03;100.00;95659.00;4999868;28;20460;-78
2021/01/22 05:40:13;;;;;;;1.10;0.80;;;7.50;99.90;;;7.82;100.00;95636.19;5000729;28;20450;-79
2021/01/22 05:42:54;;;;;;;0.80;0.70;;;7.30;99.90;;;7.68;100.00;95633.06;5000319;28;20462;-79
2021/01/22 05:45:39;;;;;;;0.80;0.70;;;7.10;99.90;;;7.61;100.00;95634.97;5000384;28;20454;-79
2021/01/22 05:48:19;;;;;;;1.10;0.70;;;7.10;99.90;;;7.57;100.00;95641.66;4999753;28;20448;-78
2021/01/22 05:50:50;;;;;;;0.80;0.70;;;7.10;99.90;;;7.49;100.00;95645.41;4999199;28;20460;-78
2021/01/22 05:53:20;;;;;;;1.00;0.70;;;7.00;99.90;;;7.45;100.00;95646.88;5000593;28;20443;-78
2021/01/22 05:56:06;;;;;;;5.00;0.90;;;6.80;99.90;;;7.45;100.00;95643.47;5000142;28;20838;-78
2021/01/22 05:58:35;;;;;;;3.83;0.80;;;6.80;99.90;;;7.42;100.00;95639.53;5000584;28;20864;-79
2021/01/22 06:01:08;;;;;;;0.80;0.70;;;6.70;99.90;;;7.36;100.00;95653.41;5001040;28;20472;-78
2021/01/22 06:03:37;;;;;;;0.80;0.77;;;6.60;99.90;;;7.41;100.00;95652.75;5000801;28;20512;-78
2021/01/22 06:06:07;;;;;;;1.37;0.70;;;6.70;99.90;;;7.41;100.00;95658.75;5000207;28;20451;-78
2021/01/22 06:08:47;;;;;;;2.20;0.90;;;6.80;99.90;;;7.34;100.00;95657.25;5000163;28;20483;-78
2021/01/22 06:11:17;;;;;;;0.80;0.70;;;6.60;99.90;;;7.33;100.00;95672.06;5000868;28;20451;-78
2021/01/22 06:13:51;;;;;;;0.70;0.60;;;6.60;99.90;;;7.34;100.00;95667.66;5001218;28;20490;-79
2021/01/22 06:16:20;;;;;;;0.80;0.70;;;6.60;99.90;;;7.23;100.00;95674.44;5000716;28;20462;-78
2021/01/22 06:18:56;;;;;;;0.97;0.80;;;6.50;99.90;;;7.16;100.00;95676.34;4999788;28;20466;-78
2021/01/22 06:21:26;;;;;;;2.70;1.00;;;6.40;99.90;;;7.15;100.00;95679.19;4996361;28;20959;-80
2021/01/22 06:23:55;;;;;;;1.03;0.80;;;6.40;99.90;;;7.14;100.00;95680.19;5000934;28;20940;-78
2021/01/22 06:26:23;;;;;;;0.80;0.67;;;6.40;99.90;;;7.17;100.00;95690.94;5000473;28;20485;-78
2021/01/22 06:28:52;;;;;;;1.73;0.70;;;6.40;99.90;;;7.23;100.00;95702.22;5000311;28;20482;-78
2021/01/22 06:31:20;;;;;;;1.23;0.70;;;6.40;99.90;;;7.10;100.00;95711.03;4999898;28;20839;-78
2021/01/22 06:33:49;;;;;;;1.07;0.80;;;6.50;99.90;;;7.00;100.00;95708.19;4999996;28;20498;-79
2021/01/22 06:36:17;;;;;;;1.67;0.80;;;6.40;99.90;;;6.98;100.00;95717.97;5000595;28;20456;-78
2021/01/22 06:38:45;;;;;;;0.93;0.80;;;6.40;99.90;;;6.79;100.00;95721.66;5000422;28;20462;-78
2021/01/22 06:41:13;;;;;;;0.80;0.70;;;6.20;99.90;;;6.62;100.00;95721.50;5000199;28;20446;-78
2021/01/22 06:43:42;;;;;;;1.37;0.90;;;5.90;99.90;;;6.54;100.00;95729.56;4999101;28;20640;-79
2021/01/22 06:46:15;;;;;;;0.80;0.70;;;5.90;99.90;;;6.53;100.00;95728.78;5000769;28;20455;-79
2021/01/22 06:48:54;;;;;;;0.70;0.60;;;5.90;99.90;;;6.38;100.00;95730.97;4999755;28;20447;-79
2021/01/22 06:51:24;;;;;;;0.70;0.60;;;5.70;99.90;;;6.41;100.00;95734.94;4999917;28;20455;-79
2021/01/22 06:54:10;;;;;;;0.70;0.70;;;5.80;99.90;;;6.37;100.00;95738.97;5000243;28;20984;-79
2021/01/22 06:56:59;;;;;;;0.70;0.63;;;5.70;99.90;;;6.37;100.00;95739.75;4999453;28;20964;-78
2021/01/22 06:59:40;;;;;;;0.80;0.70;;;5.80;99.90;;;6.34;100.00;95745.38;5000163;28;20451;-78
2021/01/22 07:02:42;;;;;;;0.70;0.70;;;5.70;99.90;;;6.31;100.00;95745.81;5000156;28;20459;-78
2021/01/22 07:05:45;;;;;;;1.57;0.70;;;5.70;99.90;;;6.27;100.00;95749.06;5000349;28;21035;-78
2021/01/22 07:08:13;;;;;;;1.00;0.77;;;5.60;99.90;;;6.23;100.00;95759.09;4997626;28;20797;-79
2021/01/22 07:11:02;;;;;;;0.70;0.70;;;5.70;99.90;;;6.12;100.00;95771.97;5002457;28;20506;-78
2021/01/22 07:13:43;;;;;;;1.63;0.70;;;5.50;99.90;;;6.04;100.00;95767.84;5002034;28;20459;-78
2021/01/22 07:16:22;;;;;;;1.47;0.70;;;5.60;99.90;;;5.95;100.00;95772.53;5004557;28;21083;-78
2021/01/22 07:18:55;;;;;;;1.40;0.80;;;5.40;99.90;;;5.95;100.00;95779.53;5003902;28;20442;-78
2021/01/22 07:21:31;;;;;;;0.77;0.70;;;5.40;99.90;;;5.93;100.00;95779.75;5002927;28;20463;-80
2021/01/22 07:24:00;;;;;;;3.20;0.70;;;5.40;99.90;;;5.90;100.00;95789.75;5003712;28;20512;-78
2021/01/22 07:26:41;;;;;;;0.80;0.70;;;5.40;99.90;;;5.80;100.00;95790.19;5003138;28;20466;-78
2021/01/22 07:29:24;;;;;;;0.90;0.80;;;5.30;99.90;;;5.77;100.00;95795.78;5003676;28;20575;-79
2021/01/22 07:32:01;;;;;;;0.80;0.70;;;5.30;99.90;;;5.70;100.00;95789.06;5002765;28;20455;-79
2021/01/22 07:34:48;;;;;;;0.90;0.73;;;5.10;99.90;;;5.77;100.00;95806.16;5002621;28;20499;-78
2021/01/22 07:37:21;;;;;;;1.10;0.90;;;5.20;99.90;;;5.76;100.00;95803.81;5004284;28;20470;-78
2021/01/22 07:39:52;;;;;;;6.33;0.93;;;5.10;99.90;;;5.79;100.00;95800.78;5003096;28;20458;-79
2021/01/22 07:42:22;;;;;;;1.00;0.90;;;5.20;99.90;;;5.72;100.00;95797.44;5002952;28;20454;-78
2021/01/22 07:44:52;;;;;;;0.90;0.80;;;5.00;99.90;;;5.68;100.00;95801.47;5003153;28;20501;-78
2021/01/22 07:47:28;;;;;;;0.80;0.77;;;5.00;99.90;;;5.68;100.00;95806.66;5003012;28;20470;-78
2021/01/22 07:49:59;;;;;;;0.90;0.80;;;5.00;99.90;;;5.68;100.00;95811.84;5003361;28;20455;-78
2021/01/22 07:52:29;;;;;;;2.70;0.77;;;5.00;99.90;;;5.64;100.00;95813.25;5002619;28;20545;-79
2021/01/22 07:54:57;;;;;;;1.00;0.90;;;4.90;99.90;;;5.51;100.00;95822.75;5003102;28;20504;-78
2021/01/22 07:57:27;;;;;;;1.13;0.90;;;4.70;99.90;;;5.37;100.00;95826.41;5001819;28;20464;-78
2021/01/22 07:59:57;;;;;;;2.30;0.90;;;4.50;99.90;;;5.45;100.00;95827.94;5003178;28;20769;-78
2021/01/22 08:02:26;;;;;;;1.23;0.87;;;4.70;99.90;;;5.39;100.00;95833.97;5002826;28;20455;-78
2021/01/22 08:05:00;;;;;;;0.80;0.70;;;4.60;99.90;;;5.28;100.00;95832.84;5003077;28;20456;-78
2021/01/22 08:07:33;;;;;;;0.83;0.83;;;4.50;99.90;;;5.26;100.00;95840.03;5001907;28;20931;-79
2021/01/22 08:10:01;;;;;;;1.20;0.90;;;4.50;99.90;;;5.14;100.00;95852.03;5002576;28;20531;-79
2021/01/22 08:12:30;;;;;;;2.00;0.77;;;4.30;99.90;;;5.05;100.00;95843.72;5001352;28;20964;-79
2021/01/22 08:14:57;;;;;;;0.80;0.80;;;4.30;99.90;;;4.98;100.00;95852.53;5002185;28;20499;-78
2021/01/22 08:17:26;;;;;;;0.80;0.70;;;4.20;99.90;;;4.97;100.00;95850.94;5002314;28;20478;-78
2021/01/22 08:19:54;;;;;;;1.77;1.10;;;4.30;99.90;;;4.86;100.00;95860.13;4997030;28;20542;-78
2021/01/22 08:22:23;;;;;;;1.10;0.90;;;4.10;99.90;;;4.77;100.00;95860.56;5001629;28;20456;-78
2021/01/22 08:24:51;;;;;;;0.90;0.90;;;4.00;99.90;;;4.74;100.00;95861.78;5001392;28;20452;-78
2021/01/22 08:27:23;;;;;;;0.80;0.70;;;3.90;99.90;;;4.79;100.00;95866.34;5002407;28;20456;-78
2021/01/22 08:29:51;;;;;;;1.00;0.90;;;4.10;99.90;;;4.63;100.00;95871.97;4999647;28;20814;-78
2021/01/22 08:32:19;;;;;;;0.90;0.80;;;3.80;99.90;;;4.58;100.00;95868.19;5001188;28;20554;-78
2021/01/22 08:34:48;;;;;;;0.97;0.87;;;3.80;99.90;;;4.57;100.00;95871.78;5001753;28;20498;-78
2021/01/22 08:37:16;;;;;;;0.70;0.70;;;3.70;99.90;;;4.62;100.00;95867.81;5002715;28;21034;-79
2021/01/22 08:39:54;;;;;;;1.53;0.80;;;3.70;99.90;;;4.61;100.00;95871.38;5002115;28;20450;-79
2021/01/22 08:42:24;;;;;;;1.20;0.90;;;3.70;99.90;;;4.54;100.00;95872.22;5001777;28;20451;-78
2021/01/22 08:44:57;;;;;;;2.97;0.90;;;3.70;99.90;;;4.56;100.00;95871.97;5002465;28;20452;-79
2021/01/22 08:47:26;;;;;;;1.50;1.03;;;3.70;99.90;;;4.56;100.00;95872.78;4997754;28;20844;-79
2021/01/22 08:49:57;;;;;;;1.00;0.80;;;3.70;99.90;;;4.57;100.00;95876.97;5002408;28;20782;-79
2021/01/22 08:52:26;;;;;;;1.07;0.80;;;3.70;99.90;;;4.66;100.00;95885.28;5000972;28;20458;-79
2021/01/22 08:54:57;;;;;;;3.17;0.80;;;3.80;99.90;;;4.76;100.00;95892.63;5001334;28;20494;-78
2021/01/22 08:57:27;;;;;;;0.87;0.73;;;3.90;99.90;;;4.79;100.00;95902.59;5001569;28;20462;-79
2021/01/22 08:59:56;;;;;;;1.17;0.90;;;4.00;99.90;;;4.83;100.00;95903.75;5001536;28;20459;-79
2021/01/22 09:02:41;;;;;;;1.00;0.90;;;4.00;99.90;;;4.89;100.00;95918.50;4998690;28;20456;-78
2021/01/22 09:05:13;;;;;;;1.13;0.80;;;4.10;99.90;;;4.79;100.00;95915.53;5001723;28;20462;-79
2021/01/22 09:07:41;;;;;;;1.17;0.80;;;4.00;99.90;;;4.88;100.00;95907.34;5001758;28;20456;-79
2021/01/22 09:10:28;;;;;;;1.00;0.90;;;4.20;99.90;;;4.93;100.00;95914.47;5001752;28;20465;-79
2021/01/22 09:13:08;;;;;;;0.90;0.80;;;4.30;99.90;;;4.95;100.00;95915.09;5001081;28;20884;-78
2021/01/22 09:15:36;;;;;;;0.73;0.70;;;4.20;99.90;;;4.89;100.00;95921.88;5001123;28;20506;-79
2021/01/22 09:18:14;;;;;;;1.17;0.90;;;4.10;99.90;;;4.92;100.00;95920.69;5000900;28;20518;-79
2021/01/22 09:20:44;;;;;;;1.03;0.93;;;4.20;99.90;;;4.90;100.00;95920.88;5001862;28;20500;-79
2021/01/22 09:23:13;;;;;;;1.60;0.87;;;4.30;99.90;;;4.89;100.00;95927.06;4996641;28;20541;-79
2021/01/22 09:25:41;;;;;;;0.70;0.70;;;4.20;99.90;;;4.94;100.00;95929.81;5001745;28;20809;-78
2021/01/22 09:28:08;;;;;;;2.47;1.30;;;4.20;99.90;;;4.95;100.00;95941.78;5001104;28;20842;-78
2021/01/22 09:30:36;;;;;;;0.90;0.80;;;4.20;99.90;;;4.92;100.00;95941.38;5000567;28;20491;-78
2021/01/22 09:33:04;;;;;;;1.20;0.80;;;4.10;99.90;;;4.98;100.00;95950.94;5000949;28;20454;-78
2021/01/22 09:35:31;;;;;;;1.00;0.80;;;4.30;99.90;;;4.98;100.00;95956.09;5001085;28;21076;-79
2021/01/22 09:38:00;;;;;;;0.70;0.70;;;4.20;99.90;;;5.02;100.00;95962.47;5000731;28;20528;-79
2021/01/22 09:40:29;;;;;;;0.83;0.83;;;4.30;99.90;;;4.97;100.00;95962.28;5001717;28;20446;-79
2021/01/22 09:42:57;;;;;;;1.90;0.90;;;4.40;99.90;;;5.00;100.00;95954.09;5000797;28;20461;-79
2021/01/22 09:45:25;;;;;;;0.90;0.80;;;4.40;99.90;;;4.98;100.00;95967.25;5001031;28;20462;-79
2021/01/22 09:47:52;;;;;;;1.10;0.97;;;4.40;99.90;;;5.00;100.00;95964.47;5000856;28;20456;-79
2021/01/22 09:50:20;;;;;;;1.47;1.00;;;4.40;99.90;;;4.98;100.00;95974.22;5000716;28;20482;-79
2021/01/22 09:52:48;;;;;;;1.10;1.00;;;4.40;99.90;;;4.95;100.00;95977.22;5000576;28;20458;-79
2021/01/22 09:55:19;;;;;;;0.90;0.80;;;4.30;99.90;;;4.96;100.00;95971.84;5000009;28;20522;-78
2021/01/22 09:57:48;;;;;;;1.07;0.97;;;4.30;99.90;;;4.97;100.00;95970.03;5000989;28;20493;-79
2021/01/22 10:00:17;;;;;;;0.80;0.80;;;4.20;99.90;;;5.03;100.00;95970.03;5000803;28;20944;-78
2021/01/22 10:02:45;;;;;;;0.93;0.80;;;4.30;99.90;;;5.11;100.00;95976.78;5001149;28;20463;-79
2021/01/22 10:05:13;;;;;;;2.40;0.80;;;4.50;99.90;;;5.09;100.00;95978.78;5000399;28;20443;-79
2021/01/22 10:07:41;;;;;;;0.90;0.90;;;4.50;99.90;;;5.08;100.00;95982.38;5000836;28;20490;-79
2021/01/22 10:10:11;;;;;;;0.90;0.80;;;4.50;99.90;;;5.06;100.00;95979.19;5000439;28;20514;-79
2021/01/22 10:12:39;;;;;;;0.80;0.77;;;4.50;99.90;;;5.08;100.00;95982.38;5000577;28;20467;-78
2021/01/22 10:15:08;;;;;;;2.27;0.93;;;4.50;99.90;;;5.08;100.00;95977.19;5000272;28;20566;-79
2021/01/22 10:17:36;;;;;;;0.80;0.80;;;4.50;99.90;;;5.09;100.00;95973.63;5002668;28;20454;-79
2021/01/22 10:20:06;;;;;;;6.73;1.30;;;4.50;99.90;;;5.06;100.00;95976.63;5000774;28;20451;-78
2021/01/22 10:22:34;;;;;;;1.00;0.90;;;4.40;99.90;;;5.00;100.00;95987.75;5000660;28;20812;-78
2021/01/22 10:25:03;;;;;;;1.23;1.13;;;4.40;99.90;;;5.03;100.00;95979.63;5000532;28;21007;-79
2021/01/22 10:27:31;;;;;;;1.43;1.30;;;4.40;99.90;;;5.02;100.00;95993.56;4999617;28;21007;-78
2021/01/22 10:29:58;;;;;;;1.60;1.50;;;4.30;99.90;;;5.04;100.00;95991.53;4998545;28;20540;-79
2021/01/22 10:32:26;;;;;;;1.67;1.37;;;4.30;99.90;;;5.06;100.00;96005.09;5000320;28;20459;-78
2021/01/22 10:34:54;;;;;;;1.10;1.00;;;4.30;99.90;;;5.10;100.00;96001.13;4999835;28;20487;-79
2021/01/22 10:37:22;;;;;;;1.40;1.30;;;4.30;99.90;;;5.06;100.00;96005.09;5001175;28;20471;-78
2021/01/22 10:39:50;;;;;;;1.27;1.17;;;4.20;99.90;;;5.09;100.00;96002.09;5000233;28;20450;-78